Time;durP1;ratioP1;P1;durP2;ratioP2;P2;SDS_P1;SDS_P2;PMS_P1;PMS_P2;Temp;Humidity;BMP_temperature;BMP_pressure;BME280_temperature;BME280_humidity;BME280_pressure;Samples;Min_cycle;Max_cycle;Signal;HPM_P1;HPM_P2
2021/08/14 00:00:44;;;;;;;6.25;1.70;;;15.20;78.90;;;;;;5052918;28;20049;-72
2021/08/14 00:03:12;;;;;;;8.27;1.98;;;15.30;79.00;;;;;;5051565;28;20045;-72
2021/08/14 00:05:40;;;;;;;11.57;2.42;;;15.30;79.00;;;;;;5051326;28;20048;-72
2021/08/14 00:08:07;;;;;;;5.25;1.60;;;15.20;79.00;;;;;;5048558;28;20049;-72
2021/08/14 00:13:45;;;;;;;10.65;2.08;;;15.20;79.30;;;;;;4971877;23;20397;-72
2021/08/14 00:16:13;;;;;;;6.45;1.58;;;15.20;79.30;;;;;;4840362;29;20054;-72
2021/08/14 00:18:40;;;;;;;6.80;1.90;;;15.20;79.40;;;;;;4860304;29;20057;-72
2021/08/14 00:21:08;;;;;;;6.97;1.70;;;15.10;79.30;;;;;;4860172;29;20403;-72
2021/08/14 00:23:36;;;;;;;12.80;2.20;;;15.10;79.40;;;;;;4860271;29;20077;-72
2021/08/14 00:26:03;;;;;;;8.85;1.98;;;15.10;79.60;;;;;;4860283;29;20053;-72
2021/08/14 00:28:31;;;;;;;5.95;1.73;;;15.00;79.90;;;;;;4878582;29;20048;-72
2021/08/14 00:30:58;;;;;;;9.07;1.98;;;15.00;79.80;;;;;;4878918;29;20052;-72
2021/08/14 00:33:26;;;;;;;8.68;1.88;;;15.00;79.90;;;;;;4862352;29;20512;-72
2021/08/14 00:35:53;;;;;;;5.75;1.70;;;15.00;79.80;;;;;;4878493;29;20064;-72
2021/08/14 00:38:21;;;;;;;9.82;1.95;;;15.00;79.90;;;;;;4878851;29;20049;-72
2021/08/14 00:40:48;;;;;;;6.28;1.60;;;15.00;79.90;;;;;;4861342;29;20073;-72
2021/08/14 00:43:16;;;;;;;10.15;1.70;;;15.00;79.90;;;;;;4878548;29;20057;-72
2021/08/14 00:45:45;;;;;;;9.00;1.85;;;15.00;79.80;;;;;;4878533;29;20060;-72
2021/08/14 00:48:33;;;;;;;8.35;1.20;;;15.00;79.80;;;;;;4877667;29;20440;-72
2021/08/14 00:51:00;;;;;;;6.13;1.67;;;15.00;79.80;;;;;;4878502;29;20048;-72
2021/08/14 00:53:28;;;;;;;16.05;1.95;;;15.00;79.90;;;;;;4878042;29;20499;-72
2021/08/14 00:55:56;;;;;;;7.75;1.83;;;15.00;79.80;;;;;;4877779;29;20049;-72
2021/08/14 00:58:23;;;;;;;8.52;1.63;;;15.00;79.90;;;;;;4861127;29;20053;-72
2021/08/14 01:00:51;;;;;;;11.18;1.77;;;15.00;79.80;;;;;;4878552;29;20414;-72
2021/08/14 01:03:19;;;;;;;6.07;1.70;;;14.90;79.70;;;;;;4878448;29;20056;-72
2021/08/14 01:05:47;;;;;;;9.27;1.98;;;15.00;79.70;;;;;;4877906;29;20053;-72
2021/08/14 01:08:15;;;;;;;6.72;2.00;;;15.00;79.70;;;;;;4878176;29;20060;-72
2021/08/14 01:10:43;;;;;;;8.35;1.73;;;15.00;79.70;;;;;;4878454;29;20049;-71
2021/08/14 01:13:11;;;;;;;6.85;1.40;;;15.00;79.80;;;;;;4877825;29;20053;-72
2021/08/14 01:15:47;;;;;;;6.70;1.85;;;14.90;79.70;;;;;;4895009;29;20503;-72
2021/08/14 01:18:16;;;;;;;4.78;1.63;;;14.90;79.80;;;;;;4897115;29;20063;-72
2021/08/14 01:20:45;;;;;;;10.88;2.35;;;14.80;79.90;;;;;;4896906;29;20053;-72
2021/08/14 01:23:14;;;;;;;8.82;1.95;;;14.80;80.00;;;;;;4896714;29;20056;-72
2021/08/14 01:25:43;;;;;;;4.43;1.98;;;14.80;80.20;;;;;;4896852;29;20041;-72
2021/08/14 01:28:13;;;;;;;8.20;1.77;;;14.70;80.40;;;;;;4897057;29;20057;-72
2021/08/14 01:30:42;;;;;;;9.05;1.98;;;14.70;80.40;;;;;;4880920;29;20048;-73
2021/08/14 01:33:13;;;;;;;8.43;1.88;;;14.70;80.40;;;;;;4899810;29;20422;-73
2021/08/14 01:35:42;;;;;;;7.65;1.98;;;14.70;80.50;;;;;;4900477;29;20496;-73
2021/08/14 01:38:10;;;;;;;9.10;1.73;;;14.70;80.70;;;;;;4900428;29;20044;-73
2021/08/14 01:40:38;;;;;;;9.25;2.00;;;14.70;80.70;;;;;;4900391;29;20040;-73
2021/08/14 01:43:07;;;;;;;10.45;2.15;;;14.70;80.60;;;;;;4899990;29;20402;-73
2021/08/14 01:45:34;;;;;;;8.05;1.70;;;14.80;80.60;;;;;;4900334;29;20056;-73
2021/08/14 01:48:02;;;;;;;6.75;1.70;;;14.80;80.60;;;;;;4899821;29;20403;-72
2021/08/14 01:50:30;;;;;;;8.77;2.67;;;14.80;80.60;;;;;;4900225;29;20056;-73
2021/08/14 01:52:57;;;;;;;11.02;1.80;;;14.80;80.60;;;;;;4900219;29;20511;-73
2021/08/14 01:55:25;;;;;;;10.18;1.67;;;14.70;80.70;;;;;;4900252;29;20410;-73
2021/08/14 01:57:53;;;;;;;4.97;1.80;;;14.80;80.80;;;;;;4900174;29;20049;-74
2021/08/14 02:00:20;;;;;;;8.75;1.92;;;14.80;80.70;;;;;;4900047;29;20505;-73
2021/08/14 02:02:48;;;;;;;7.53;2.30;;;14.80;80.80;;;;;;4883034;29;20506;-73
2021/08/14 02:05:17;;;;;;;10.82;2.78;;;14.80;80.80;;;;;;4900028;29;20048;-73
2021/08/14 02:07:44;;;;;;;8.13;2.00;;;14.80;80.80;;;;;;4882891;29;20056;-73
2021/08/14 02:10:12;;;;;;;4.30;1.80;;;14.80;80.80;;;;;;4893321;29;20068;-73
2021/08/14 02:12:39;;;;;;;8.90;1.92;;;14.80;80.90;;;;;;4890668;29;20053;-73
2021/08/14 02:15:08;;;;;;;6.88;2.00;;;14.80;80.90;;;;;;4880972;29;20498;-73
2021/08/14 02:17:36;;;;;;;5.38;2.08;;;14.80;81.00;;;;;;4880508;29;20057;-73
2021/08/14 02:20:04;;;;;;;7.55;1.95;;;14.80;80.90;;;;;;4881086;29;20049;-71
2021/08/14 02:22:32;;;;;;;7.68;2.10;;;14.80;81.00;;;;;;4881101;29;20076;-71
2021/08/14 02:24:59;;;;;;;6.55;2.10;;;14.80;81.00;;;;;;4880333;29;20053;-72
2021/08/14 02:27:30;;;;;;;5.30;1.90;;;14.80;81.00;;;;;;4880355;29;20061;-72
2021/08/14 02:29:57;;;;;;;8.38;2.00;;;14.80;81.00;;;;;;4880890;29;20065;-72
2021/08/14 02:32:26;;;;;;;6.10;1.83;;;14.80;81.00;;;;;;4880813;29;20052;-72
2021/08/14 02:34:53;;;;;;;6.43;1.95;;;14.80;81.00;;;;;;4880760;29;20453;-72
2021/08/14 02:37:21;;;;;;;11.88;2.22;;;14.80;81.00;;;;;;4880904;29;20060;-72
2021/08/14 02:39:48;;;;;;;7.10;2.22;;;14.70;81.10;;;;;;4863673;29;20053;-72
2021/08/14 02:42:16;;;;;;;9.68;1.98;;;14.70;81.20;;;;;;4863263;29;20060;-72
2021/08/14 02:44:43;;;;;;;7.80;2.33;;;14.70;81.20;;;;;;4880661;29;20518;-72
2021/08/14 02:47:11;;;;;;;9.65;2.10;;;14.70;81.30;;;;;;4880874;29;20045;-72
2021/08/14 02:49:38;;;;;;;10.15;2.00;;;14.70;81.30;;;;;;4880263;29;20056;-72
2021/08/14 02:52:06;;;;;;;11.40;2.35;;;14.70;81.30;;;;;;4880546;29;20045;-72
2021/08/14 02:54:33;;;;;;;7.60;1.98;;;14.70;81.40;;;;;;4880531;29;20053;-73
2021/08/14 02:57:01;;;;;;;9.55;2.45;;;14.60;81.40;;;;;;4879860;29;20049;-72
2021/08/14 02:59:28;;;;;;;6.53;1.80;;;14.60;81.50;;;;;;4863849;29;20072;-72
2021/08/14 03:01:56;;;;;;;12.82;2.15;;;14.70;81.50;;;;;;4880325;29;20049;-72
2021/08/14 03:04:24;;;;;;;7.95;2.20;;;14.60;81.60;;;;;;4887142;29;20053;-72
2021/08/14 03:06:56;;;;;;;11.13;1.90;;;14.60;81.60;;;;;;4899018;29;20045;-73
2021/08/14 03:09:24;;;;;;;8.02;2.03;;;14.60;81.60;;;;;;4898344;29;20063;-72
2021/08/14 03:11:51;;;;;;;9.75;2.30;;;14.60;81.70;;;;;;4899129;29;20060;-72
2021/08/14 03:14:19;;;;;;;7.15;2.03;;;14.50;81.80;;;;;;4895304;29;20056;-72
2021/08/14 03:16:47;;;;;;;9.57;2.30;;;14.50;81.90;;;;;;4880017;29;20053;-72
2021/08/14 03:19:14;;;;;;;8.68;2.35;;;14.50;81.90;;;;;;4879884;29;20052;-72
2021/08/14 03:21:42;;;;;;;10.45;2.25;;;14.50;82.00;;;;;;4880349;29;20053;-72
2021/08/14 03:24:09;;;;;;;12.27;2.70;;;14.50;81.90;;;;;;4879986;29;20045;-72
2021/08/14 03:26:37;;;;;;;4.63;1.80;;;14.50;81.90;;;;;;4879960;29;20073;-72
2021/08/14 03:29:04;;;;;;;9.75;2.08;;;14.60;81.90;;;;;;4879914;29;20060;-72
2021/08/14 03:31:32;;;;;;;12.90;2.33;;;14.60;81.80;;;;;;4879792;29;20049;-72
2021/08/14 03:33:59;;;;;;;10.02;2.58;;;14.50;81.90;;;;;;4879614;29;20052;-72
2021/08/14 03:36:27;;;;;;;12.35;2.30;;;14.50;81.90;;;;;;4879673;29;20491;-73
2021/08/14 03:38:55;;;;;;;8.40;2.38;;;14.50;81.90;;;;;;4879712;29;20049;-72
2021/08/14 03:41:22;;;;;;;7.45;1.90;;;14.50;81.90;;;;;;4879686;29;20056;-72
2021/08/14 03:43:50;;;;;;;7.82;2.03;;;14.50;81.90;;;;;;4879549;29;20057;-72
2021/08/14 03:46:17;;;;;;;9.02;2.00;;;14.50;81.90;;;;;;4879017;29;20056;-72
2021/08/14 03:48:45;;;;;;;8.45;2.05;;;14.50;81.90;;;;;;4879119;29;20059;-73
2021/08/14 03:51:13;;;;;;;12.88;2.33;;;14.50;81.90;;;;;;4879656;29;20055;-73
2021/08/14 03:53:40;;;;;;;13.50;2.58;;;14.60;81.80;;;;;;4879226;29;20060;-72
2021/08/14 03:56:08;;;;;;;10.80;2.42;;;14.60;81.80;;;;;;4879446;29;20053;-72
2021/08/14 03:58:35;;;;;;;8.27;2.30;;;14.60;81.70;;;;;;4887253;29;20049;-72
2021/08/14 04:01:06;;;;;;;8.93;2.20;;;14.60;81.70;;;;;;4898048;29;20057;-72
2021/08/14 04:03:35;;;;;;;13.00;2.10;;;14.60;81.70;;;;;;4880041;29;20056;-72
2021/08/14 04:06:02;;;;;;;11.63;2.47;;;14.60;81.60;;;;;;4897784;29;20052;-72
2021/08/14 04:08:30;;;;;;;11.68;2.15;;;14.70;81.60;;;;;;4897986;29;20067;-72
2021/08/14 04:10:57;;;;;;;10.27;2.28;;;14.70;81.50;;;;;;4879458;29;20059;-72
2021/08/14 04:13:25;;;;;;;12.90;2.55;;;14.70;81.50;;;;;;4885633;29;20056;-72
2021/08/14 04:15:53;;;;;;;13.60;2.70;;;14.70;81.50;;;;;;4891215;29;20080;-72
2021/08/14 04:18:20;;;;;;;5.68;1.90;;;14.70;81.50;;;;;;4897769;29;20068;-72
2021/08/14 04:20:48;;;;;;;11.93;2.00;;;14.70;81.50;;;;;;4897673;29;20048;-72
2021/08/14 04:23:15;;;;;;;12.85;2.78;;;14.70;81.50;;;;;;4896538;29;20057;-72
2021/08/14 04:25:48;;;;;;;7.25;1.85;;;14.70;81.40;;;;;;4897711;29;20051;-72
2021/08/14 04:28:16;;;;;;;13.45;2.50;;;14.70;81.40;;;;;;4897645;29;20208;-72
2021/08/14 04:30:43;;;;;;;9.50;2.15;;;14.70;81.40;;;;;;4896397;29;20063;-72
2021/08/14 04:33:11;;;;;;;14.05;2.40;;;14.70;81.40;;;;;;4896717;29;20061;-72
2021/08/14 04:35:38;;;;;;;10.20;2.10;;;14.60;81.40;;;;;;4897637;29;20048;-72
2021/08/14 04:38:06;;;;;;;16.10;2.90;;;14.70;81.50;;;;;;4897440;29;20048;-72
2021/08/14 04:40:34;;;;;;;10.45;2.35;;;14.60;81.60;;;;;;4880737;29;20056;-72
2021/08/14 04:43:01;;;;;;;9.00;2.28;;;14.60;81.60;;;;;;4896382;29;20510;-72
2021/08/14 04:45:29;;;;;;;11.68;2.50;;;14.70;81.60;;;;;;4897189;29;20376;-72
2021/08/14 04:47:56;;;;;;;9.70;2.30;;;14.60;81.50;;;;;;4897191;29;20101;-72
2021/08/14 04:50:24;;;;;;;9.57;2.30;;;14.60;81.60;;;;;;4896620;29;20072;-72
2021/08/14 04:52:51;;;;;;;7.90;2.13;;;14.60;81.60;;;;;;4880123;29;20056;-73
2021/08/14 04:55:20;;;;;;;10.88;2.28;;;14.70;81.50;;;;;;4897181;29;20201;-73
2021/08/14 04:57:47;;;;;;;10.85;2.30;;;14.70;81.50;;;;;;4880619;29;20390;-73
2021/08/14 05:00:15;;;;;;;13.77;2.20;;;14.70;81.50;;;;;;4880424;29;20048;-73
2021/08/14 05:02:42;;;;;;;13.57;2.65;;;14.70;81.50;;;;;;4897154;29;20052;-72
2021/08/14 05:05:10;;;;;;;14.82;2.33;;;14.70;81.50;;;;;;4881105;29;20048;-72
2021/08/14 05:07:38;;;;;;;7.55;2.00;;;14.70;81.50;;;;;;4900253;29;20067;-72
2021/08/14 05:10:06;;;;;;;11.07;2.83;;;14.70;81.60;;;;;;4901068;29;20056;-72
2021/08/14 05:12:34;;;;;;;8.82;1.88;;;14.70;81.60;;;;;;4900232;29;20053;-72
2021/08/14 05:15:01;;;;;;;7.53;1.98;;;14.70;81.60;;;;;;4883801;29;20049;-72
2021/08/14 05:17:29;;;;;;;12.65;2.45;;;14.70;81.60;;;;;;4901014;29;20374;-72
2021/08/14 05:19:57;;;;;;;11.07;2.00;;;14.70;81.70;;;;;;4899954;29;20593;-72
2021/08/14 05:22:24;;;;;;;17.27;2.47;;;14.70;81.80;;;;;;4900780;29;20506;-72
2021/08/14 05:24:52;;;;;;;10.43;2.17;;;14.80;81.70;;;;;;4900731;29;20052;-72
2021/08/14 05:27:19;;;;;;;13.45;2.40;;;14.80;81.60;;;;;;4900727;29;20045;-72
2021/08/14 05:29:47;;;;;;;7.70;2.08;;;14.80;81.60;;;;;;4883254;29;20052;-72
2021/08/14 05:32:15;;;;;;;8.55;2.30;;;14.80;81.70;;;;;;4900654;29;20407;-72
2021/08/14 05:34:42;;;;;;;10.82;3.08;;;14.80;81.60;;;;;;4899993;29;20060;-72
2021/08/14 05:37:10;;;;;;;12.45;2.17;;;14.80;81.60;;;;;;4883252;29;20053;-72
2021/08/14 05:39:38;;;;;;;10.65;2.15;;;14.90;81.50;;;;;;4900679;29;20044;-72
2021/08/14 05:42:06;;;;;;;10.60;2.72;;;14.90;81.60;;;;;;4900642;29;20067;-72
2021/08/14 05:44:33;;;;;;;11.38;2.60;;;14.90;81.50;;;;;;4900296;29;20418;-72
2021/08/14 05:47:01;;;;;;;11.25;2.42;;;15.00;81.50;;;;;;4900345;29;20053;-71
2021/08/14 05:49:29;;;;;;;14.13;2.75;;;14.90;81.40;;;;;;4900378;29;20394;-72
2021/08/14 05:51:58;;;;;;;13.60;2.45;;;15.00;81.40;;;;;;4882884;29;20056;-72
2021/08/14 05:54:26;;;;;;;13.88;2.70;;;15.00;81.40;;;;;;4899250;29;20059;-72
2021/08/14 05:56:53;;;;;;;11.50;2.58;;;15.10;81.30;;;;;;4899509;29;20065;-72
2021/08/14 05:59:21;;;;;;;15.98;2.33;;;15.10;81.20;;;;;;4899098;29;20056;-72
2021/08/14 06:01:48;;;;;;;8.75;2.10;;;15.20;81.10;;;;;;4882556;29;20060;-72
2021/08/14 06:04:16;;;;;;;11.75;2.20;;;15.20;81.10;;;;;;4899953;29;20048;-72
2021/08/14 06:06:45;;;;;;;9.82;2.13;;;15.30;81.00;;;;;;4900041;29;20053;-72
2021/08/14 06:09:12;;;;;;;9.85;2.05;;;15.30;80.90;;;;;;4900063;29;20044;-72
2021/08/14 06:11:40;;;;;;;8.05;2.30;;;15.30;80.80;;;;;;4899850;29;20052;-72
2021/08/14 06:14:08;;;;;;;12.05;2.50;;;15.30;80.70;;;;;;4885454;29;20057;-71
2021/08/14 06:16:36;;;;;;;13.32;2.50;;;15.40;80.60;;;;;;4880443;29;20053;-72
2021/08/14 06:19:04;;;;;;;11.57;2.30;;;15.40;80.50;;;;;;4881113;29;20533;-72
2021/08/14 06:21:32;;;;;;;10.10;1.80;;;15.40;80.50;;;;;;4864391;29;20092;-72
2021/08/14 06:23:59;;;;;;;8.70;2.25;;;15.50;80.60;;;;;;4881014;29;20061;-72
2021/08/14 06:26:27;;;;;;;13.15;2.40;;;15.40;80.40;;;;;;4880869;29;20487;-72
2021/08/14 06:28:55;;;;;;;11.85;2.30;;;15.40;80.40;;;;;;4880229;29;20072;-72
2021/08/14 06:31:22;;;;;;;10.02;1.92;;;15.50;80.40;;;;;;4880785;29;20057;-72
2021/08/14 06:33:50;;;;;;;9.95;2.33;;;15.50;80.40;;;;;;4880367;29;20495;-72
2021/08/14 06:36:18;;;;;;;10.07;2.25;;;15.50;80.40;;;;;;4879093;29;20052;-72
2021/08/14 06:38:45;;;;;;;10.38;2.10;;;15.50;80.30;;;;;;4880280;29;20056;-72
2021/08/14 06:41:13;;;;;;;12.32;2.30;;;15.50;80.30;;;;;;4880167;29;20061;-72
2021/08/14 06:43:40;;;;;;;14.68;2.85;;;15.50;80.20;;;;;;4880588;29;20497;-71
2021/08/14 06:46:08;;;;;;;12.50;2.22;;;15.50;80.10;;;;;;4880581;29;20072;-71
2021/08/14 06:48:36;;;;;;;12.80;2.30;;;15.60;80.10;;;;;;4880776;29;20048;-72
2021/08/14 06:51:04;;;;;;;10.88;2.67;;;15.60;80.10;;;;;;4880498;29;20383;-72
2021/08/14 06:53:31;;;;;;;11.27;2.15;;;15.60;80.10;;;;;;4880423;29;20068;-72
2021/08/14 06:55:59;;;;;;;9.95;2.20;;;15.60;80.10;;;;;;4863790;29;20414;-72
2021/08/14 06:58:27;;;;;;;11.43;2.78;;;15.60;80.10;;;;;;4880842;29;20082;-72
2021/08/14 07:00:54;;;;;;;16.05;2.63;;;15.60;80.10;;;;;;4880319;29;20056;-72
2021/08/14 07:03:22;;;;;;;16.38;3.08;;;15.60;80.00;;;;;;4880572;29;20045;-72
2021/08/14 07:05:50;;;;;;;10.93;2.90;;;15.70;79.90;;;;;;4880297;29;20049;-72
2021/08/14 07:08:17;;;;;;;16.77;2.40;;;15.80;79.70;;;;;;4880244;29;20408;-72
2021/08/14 07:10:45;;;;;;;11.15;2.60;;;15.80;79.60;;;;;;4863601;29;20059;-72
2021/08/14 07:13:13;;;;;;;9.60;2.40;;;15.80;79.50;;;;;;4880297;29;20068;-72
2021/08/14 07:15:41;;;;;;;12.15;2.22;;;15.90;79.30;;;;;;4879807;29;20061;-72
2021/08/14 07:18:09;;;;;;;14.25;2.65;;;16.00;79.00;;;;;;4880036;29;20064;-72
2021/08/14 07:20:36;;;;;;;11.68;2.97;;;16.00;78.80;;;;;;4879652;29;20108;-72
2021/08/14 07:23:04;;;;;;;15.23;3.03;;;16.10;78.70;;;;;;4879980;29;20048;-72
2021/08/14 07:25:31;;;;;;;6.97;2.10;;;16.20;78.70;;;;;;4879748;29;20056;-72
2021/08/14 07:27:59;;;;;;;25.00;2.95;;;16.30;78.60;;;;;;4878946;29;20049;-73
2021/08/14 07:30:27;;;;;;;9.13;2.28;;;16.30;78.40;;;;;;4862927;29;20053;-73
2021/08/14 07:32:54;;;;;;;12.00;2.72;;;16.40;78.00;;;;;;4879718;29;20053;-73
2021/08/14 07:35:22;;;;;;;8.88;2.40;;;16.50;77.80;;;;;;4880150;29;20053;-73
2021/08/14 07:37:51;;;;;;;10.25;2.50;;;16.60;77.50;;;;;;4879303;29;20415;-73
2021/08/14 07:40:20;;;;;;;12.52;2.60;;;16.60;77.10;;;;;;4879666;29;20106;-73
2021/08/14 07:42:48;;;;;;;15.75;2.58;;;16.60;77.00;;;;;;4879233;29;20045;-73
2021/08/14 07:45:19;;;;;;;9.63;2.25;;;16.70;77.10;;;;;;4863255;29;20403;-73
2021/08/14 07:47:48;;;;;;;12.90;2.00;;;16.80;76.80;;;;;;4879622;29;20049;-73
2021/08/14 07:50:24;;;;;;;9.00;2.28;;;16.80;76.20;;;;;;4862816;29;20526;-73
2021/08/14 07:52:53;;;;;;;14.60;2.42;;;16.80;76.00;;;;;;4862621;29;20079;-73
2021/08/14 07:55:23;;;;;;;11.88;2.70;;;16.80;76.00;;;;;;4879155;29;20053;-73
2021/08/14 07:57:51;;;;;;;19.88;2.80;;;16.80;75.80;;;;;;4862179;29;20214;-73
2021/08/14 08:00:23;;;;;;;24.58;2.45;;;16.90;75.90;;;;;;4879308;29;20391;-73
2021/08/14 08:02:51;;;;;;;14.10;2.30;;;17.00;75.80;;;;;;4862782;29;20049;-73
2021/08/14 08:05:20;;;;;;;14.55;2.38;;;17.10;75.00;;;;;;4879205;29;20045;-73
2021/08/14 08:07:47;;;;;;;27.23;2.72;;;17.30;74.90;;;;;;4879239;29;20053;-73
2021/08/14 08:10:20;;;;;;;15.52;2.83;;;17.30;74.70;;;;;;4861973;29;20053;-73
2021/08/14 08:12:48;;;;;;;11.52;2.33;;;17.40;74.20;;;;;;4878034;29;20053;-73
2021/08/14 08:15:16;;;;;;;13.95;2.22;;;17.50;73.60;;;;;;4878873;29;20053;-73
2021/08/14 08:17:45;;;;;;;9.63;2.03;;;17.60;73.00;;;;;;4879090;29;20704;-73
2021/08/14 08:20:15;;;;;;;11.57;2.15;;;17.70;73.00;;;;;;4879570;29;20056;-73
2021/08/14 08:22:43;;;;;;;12.02;2.17;;;17.80;72.30;;;;;;4878912;29;20049;-73
2021/08/14 08:25:13;;;;;;;13.07;2.08;;;17.80;71.50;;;;;;4877930;29;20065;-73
2021/08/14 08:27:42;;;;;;;18.48;2.50;;;17.80;71.40;;;;;;4878925;29;20060;-73
2021/08/14 08:30:11;;;;;;;9.82;2.17;;;17.80;71.90;;;;;;4877106;29;20052;-73
2021/08/14 08:32:42;;;;;;;14.00;2.40;;;17.80;71.70;;;;;;4878801;29;20064;-73
2021/08/14 08:35:11;;;;;;;12.55;2.78;;;17.80;70.20;;;;;;4878762;29;20053;-73
2021/08/14 08:37:39;;;;;;;13.27;2.60;;;17.80;70.30;;;;;;4878594;29;20049;-73
2021/08/14 08:40:13;;;;;;;11.68;2.38;;;17.80;70.60;;;;;;4861204;29;20055;-73
2021/08/14 08:42:42;;;;;;;10.10;2.28;;;17.90;70.80;;;;;;4878463;29;20053;-73
2021/08/14 08:45:10;;;;;;;9.02;1.88;;;18.00;70.90;;;;;;4877761;29;20056;-73
2021/08/14 08:47:43;;;;;;;13.65;2.20;;;18.20;70.20;;;;;;4878459;29;20052;-73
2021/08/14 08:50:12;;;;;;;6.85;1.70;;;18.30;67.70;;;;;;4878822;29;20049;-72
2021/08/14 08:52:42;;;;;;;9.77;2.17;;;18.30;67.80;;;;;;4861854;29;20068;-73
2021/08/14 08:55:12;;;;;;;9.05;2.10;;;18.30;67.60;;;;;;4877893;29;20060;-73
2021/08/14 08:57:40;;;;;;;13.77;2.17;;;18.30;68.00;;;;;;4878578;29;20407;-73
2021/08/14 09:00:09;;;;;;;7.95;1.92;;;18.40;67.90;;;;;;4877550;29;20419;-73
2021/08/14 09:02:37;;;;;;;9.55;1.83;;;18.50;67.60;;;;;;4861347;29;20053;-73
2021/08/14 09:05:15;;;;;;;15.98;2.50;;;18.60;67.80;;;;;;4862196;29;20045;-73
2021/08/14 09:07:45;;;;;;;10.18;1.88;;;18.70;67.70;;;;;;4876968;29;20057;-73
2021/08/14 09:10:16;;;;;;;28.00;2.95;;;18.80;66.70;;;;;;4861998;29;20142;-73
2021/08/14 09:12:44;;;;;;;47.97;3.70;;;18.60;66.50;;;;;;4878445;29;20045;-73
2021/08/14 09:15:19;;;;;;;16.33;2.33;;;18.70;67.00;;;;;;4878264;29;20142;-73
2021/08/14 09:17:48;;;;;;;17.98;2.85;;;18.80;67.10;;;;;;4878350;29;20087;-73
2021/08/14 09:20:18;;;;;;;7.28;1.85;;;18.80;66.90;;;;;;4861963;29;20060;-74
2021/08/14 09:23:09;;;;;;;13.80;2.33;;;18.90;66.30;;;;;;4878564;29;20064;-73
2021/08/14 09:25:47;;;;;;;20.92;2.70;;;19.00;66.50;;;;;;4878389;29;20053;-73
2021/08/14 09:28:28;;;;;;;51.40;4.35;;;19.10;65.90;;;;;;4877999;29;20049;-73
2021/08/14 09:30:58;;;;;;;12.27;2.38;;;19.20;65.60;;;;;;4878443;29;20543;-74
2021/08/14 09:33:28;;;;;;;11.00;2.35;;;19.30;65.30;;;;;;4846363;29;20418;-73
2021/08/14 09:36:01;;;;;;;10.25;2.10;;;19.50;64.60;;;;;;4878245;29;20491;-73
2021/08/14 09:38:40;;;;;;;9.00;1.98;;;19.60;64.20;;;;;;4877921;29;20064;-73
2021/08/14 09:41:21;;;;;;;7.78;1.70;;;19.80;62.10;;;;;;4878483;29;20517;-73
2021/08/14 09:43:51;;;;;;;8.55;2.00;;;19.80;60.50;;;;;;4878400;29;20060;-73
2021/08/14 09:46:20;;;;;;;9.15;2.05;;;19.80;61.20;;;;;;4878266;29;20049;-73
2021/08/14 09:48:56;;;;;;;11.07;2.30;;;19.90;60.30;;;;;;4878284;29;20052;-73
2021/08/14 09:51:28;;;;;;;11.93;2.58;;;19.90;60.20;;;;;;4862171;29;20056;-73
2021/08/14 09:53:57;;;;;;;54.45;4.43;;;20.00;59.60;;;;;;4881659;29;20049;-73
2021/08/14 09:56:32;;;;;;;12.32;2.45;;;20.00;59.60;;;;;;4881076;29;20061;-73
2021/08/14 09:59:01;;;;;;;10.25;1.92;;;19.80;60.30;;;;;;4880926;29;20053;-73
2021/08/14 10:01:32;;;;;;;9.60;2.30;;;19.80;60.50;;;;;;4881444;29;20045;-73
2021/08/14 10:04:01;;;;;;;8.20;2.15;;;19.60;60.30;;;;;;4881219;29;20049;-73
2021/08/14 10:06:30;;;;;;;9.70;2.17;;;19.30;61.30;;;;;;4881395;29;20399;-73
2021/08/14 10:08:58;;;;;;;9.20;2.00;;;19.30;61.60;;;;;;4864320;29;20049;-73
2021/08/14 10:11:26;;;;;;;8.32;1.88;;;19.20;60.90;;;;;;4864121;29;20068;-73
2021/08/14 10:13:53;;;;;;;13.50;2.20;;;19.00;61.40;;;;;;4864140;29;20072;-73
2021/08/14 10:16:21;;;;;;;10.30;1.88;;;18.90;62.00;;;;;;4863699;29;20074;-73
2021/08/14 10:18:52;;;;;;;8.50;2.00;;;19.00;62.40;;;;;;4884203;29;20052;-73
2021/08/14 10:21:23;;;;;;;7.22;1.70;;;19.00;61.40;;;;;;4882754;29;20055;-73
2021/08/14 10:23:53;;;;;;;6.88;2.05;;;18.90;60.40;;;;;;4899495;29;20055;-73
2021/08/14 10:26:27;;;;;;;10.23;2.53;;;18.80;60.80;;;;;;4899752;29;20049;-73
2021/08/14 10:28:56;;;;;;;10.80;2.13;;;18.80;61.20;;;;;;4899543;29;20517;-73
2021/08/14 10:31:30;;;;;;;5.35;1.70;;;18.80;61.70;;;;;;4899497;29;20052;-73
2021/08/14 10:34:18;;;;;;;8.90;2.20;;;18.80;61.60;;;;;;4899389;29;20060;-74
2021/08/14 10:36:49;;;;;;;7.22;1.90;;;18.80;61.20;;;;;;4883748;29;20406;-73
2021/08/14 10:39:17;;;;;;;5.50;1.70;;;18.80;61.60;;;;;;4883118;29;20053;-73
2021/08/14 10:41:47;;;;;;;6.32;2.03;;;18.80;62.10;;;;;;4899435;29;20383;-73
2021/08/14 10:44:15;;;;;;;10.57;2.00;;;18.90;61.80;;;;;;4851763;29;20056;-73
2021/08/14 10:46:49;;;;;;;13.32;2.30;;;19.10;61.60;;;;;;4899415;29;20060;-73
2021/08/14 10:49:32;;;;;;;8.88;2.20;;;19.30;61.20;;;;;;4899187;29;20052;-74
2021/08/14 10:52:02;;;;;;;11.63;2.60;;;19.50;60.90;;;;;;4898620;29;20394;-74
2021/08/14 10:54:31;;;;;;;6.18;2.10;;;19.80;61.00;;;;;;4899241;29;20064;-74
2021/08/14 10:57:04;;;;;;;7.80;2.15;;;20.20;60.70;;;;;;4898643;29;20051;-79
2021/08/14 11:02:11;;;;;;;;;;;20.70;58.90;;;;;;4899109;29;20059;-78
2021/08/14 11:04:39;;;;;;;9.50;1.55;;;20.90;56.70;;;;;;4899626;29;19931;-79
2021/08/14 11:09:49;;;;;;;7.05;1.75;;;21.10;54.40;;;;;;4908793;29;20379;-79
2021/08/14 11:12:41;;;;;;;9.65;2.03;;;21.10;53.90;;;;;;4906703;29;20052;-79
2021/08/14 11:15:29;;;;;;;5.43;1.70;;;21.10;53.60;;;;;;4859657;29;20061;-79
2021/08/14 11:18:01;;;;;;;10.18;2.17;;;21.10;53.50;;;;;;4861943;29;20542;-79
2021/08/14 11:20:35;;;;;;;12.20;2.10;;;21.00;53.60;;;;;;4861814;29;20049;-79
2021/08/14 11:23:22;;;;;;;6.50;1.85;;;21.00;53.90;;;;;;4861430;29;20053;-79
2021/08/14 11:25:50;;;;;;;8.55;1.60;;;21.10;53.40;;;;;;4861509;29;20045;-79
2021/08/14 11:28:25;;;;;;;6.95;1.63;;;21.10;53.20;;;;;;4861695;29;20495;-79
2021/08/14 11:30:57;;;;;;;7.40;1.80;;;21.00;53.20;;;;;;4859236;29;20397;-79
2021/08/14 11:33:27;;;;;;;6.85;1.75;;;21.20;53.00;;;;;;4861400;29;20057;-78
2021/08/14 11:36:07;;;;;;;5.38;1.63;;;21.30;52.40;;;;;;4861709;29;20045;-80
2021/08/14 11:38:37;;;;;;;6.70;1.65;;;21.30;50.90;;;;;;4861019;29;20057;-79
2021/08/14 11:41:16;;;;;;;5.60;1.70;;;21.30;51.20;;;;;;4861196;29;20525;-78
2021/08/14 11:43:44;;;;;;;7.30;1.60;;;21.30;51.80;;;;;;4859363;29;20053;-78
2021/08/14 11:46:12;;;;;;;7.32;1.70;;;21.30;52.20;;;;;;4858652;29;20057;-77
2021/08/14 11:48:42;;;;;;;8.32;2.20;;;21.30;52.70;;;;;;4860430;29;20057;-78
2021/08/14 11:51:20;;;;;;;5.68;1.80;;;21.20;52.70;;;;;;4859613;29;20072;-78
2021/08/14 11:53:49;;;;;;;11.90;2.28;;;21.00;52.90;;;;;;4859032;29;20064;-78
2021/08/14 11:56:17;;;;;;;6.30;1.55;;;20.90;53.20;;;;;;4860651;29;20068;-77
2021/08/14 11:58:44;;;;;;;5.72;1.85;;;20.70;53.70;;;;;;4860134;29;20064;-77
2021/08/14 12:01:12;;;;;;;7.88;2.17;;;20.70;53.90;;;;;;4858800;29;20049;-77
2021/08/14 12:03:40;;;;;;;5.50;1.77;;;20.60;53.80;;;;;;4860451;29;20072;-77
2021/08/14 12:06:13;;;;;;;7.97;1.90;;;20.60;53.80;;;;;;4860615;29;20519;-77
2021/08/14 12:08:46;;;;;;;7.47;1.80;;;20.60;53.90;;;;;;4860621;29;20396;-77
2021/08/14 12:11:21;;;;;;;7.75;1.95;;;20.70;53.90;;;;;;4860380;29;20061;-77
2021/08/14 12:14:18;;;;;;;9.55;2.15;;;20.80;53.60;;;;;;4859650;29;20054;-77
2021/08/14 12:16:48;;;;;;;11.77;1.98;;;20.90;53.20;;;;;;4862566;29;20041;-77
2021/08/14 12:19:22;;;;;;;6.28;1.98;;;20.90;53.00;;;;;;4865820;29;20503;-77
2021/08/14 12:21:50;;;;;;;;;;;21.00;52.80;;;;;;4880485;29;20518;-77
2021/08/14 12:24:18;;;;;;;6.47;1.90;;;21.20;52.40;;;;;;4881512;29;19932;-78
2021/08/14 12:26:45;;;;;;;6.28;1.70;;;21.20;52.40;;;;;;4897499;29;20114;-78
2021/08/14 12:29:15;;;;;;;5.35;1.58;;;21.20;52.10;;;;;;4896699;29;20045;-78
2021/08/14 12:31:44;;;;;;;7.07;1.77;;;21.20;52.20;;;;;;4897189;29;20052;-78
2021/08/14 12:34:33;;;;;;;10.10;2.20;;;21.10;52.60;;;;;;4897131;29;20057;-78
2021/08/14 12:37:10;;;;;;;7.53;2.00;;;21.00;52.70;;;;;;4896513;29;20050;-78
2021/08/14 12:39:56;;;;;;;7.35;2.08;;;20.90;52.90;;;;;;4897295;29;20063;-78
2021/08/14 12:42:35;;;;;;;7.57;2.15;;;20.80;53.20;;;;;;4879861;29;20061;-77
2021/08/14 12:45:22;;;;;;;10.65;2.35;;;20.80;53.40;;;;;;4879981;29;20063;-78
2021/08/14 12:47:52;;;;;;;6.20;2.10;;;20.80;53.30;;;;;;4897068;29;20071;-77
2021/08/14 12:50:28;;;;;;;8.00;2.00;;;20.90;53.50;;;;;;4896415;29;20064;-77
2021/08/14 12:53:13;;;;;;;8.40;2.20;;;20.90;53.50;;;;;;4880456;29;20056;-77
2021/08/14 12:55:43;;;;;;;8.45;1.92;;;20.80;53.90;;;;;;4896409;29;20064;-77
2021/08/14 12:58:22;;;;;;;9.32;2.22;;;20.80;53.80;;;;;;4878985;29;20056;-77
2021/08/14 13:00:52;;;;;;;10.63;2.00;;;20.80;53.80;;;;;;4896933;29;20057;-77
2021/08/14 13:03:20;;;;;;;9.30;1.98;;;20.80;54.30;;;;;;4896612;29;20067;-77